Time;durP1;ratioP1;P1;durP2;ratioP2;P2;SDS_P1;SDS_P2;PMS_P1;PMS_P2;Temp;Humidity;BMP_temperature;BMP_pressure;BME280_temperature;BME280_humidity;BME280_pressure;Samples;Min_cycle;Max_cycle;Signal;HPM_P1;HPM_P2
2022/11/03 00:02:09;;;;;;;;;;;;;;;21.04;27.33;98311.00;4996025;28;731;-78
2022/11/03 00:04:35;;;;;;;;;;;;;;;21.24;27.18;98320.31;4995942;28;923;-77
2022/11/03 00:07:00;;;;;;;;;;;;;;;21.23;27.37;98315.84;4963609;28;1215;-77
2022/11/03 00:09:26;;;;;;;;;;;;;;;21.08;27.40;98323.03;4996084;28;918;-76
2022/11/03 00:11:51;;;;;;;;;;;;;;;20.86;27.95;98319.00;4997004;28;1599;-77
2022/11/03 00:14:17;;;;;;;;;;;;;;;21.43;27.14;98315.09;4997194;28;1922;-77
2022/11/03 00:16:42;;;;;;;;;;;;;;;21.37;26.96;98322.50;4997902;28;1212;-77
2022/11/03 00:19:08;;;;;;;;;;;;;;;21.51;26.73;98322.22;4997843;28;727;-77
2022/11/03 00:21:33;;;;;;;;;;;;;;;21.12;27.30;98318.09;4995827;28;1579;-77
2022/11/03 00:24:01;;;;;;;;;;;;;;;21.07;27.67;98321.44;4996715;28;1127;-77
2022/11/03 00:26:30;;;;;;;;;;;;;;;21.03;27.58;98326.34;4979261;28;1143;-78
2022/11/03 00:28:56;;;;;;;;;;;;;;;21.00;27.95;98327.25;4978636;28;1275;-77
2022/11/03 00:31:22;;;;;;;;;;;;;;;21.14;27.69;98324.16;4966080;28;1549;-77
2022/11/03 00:33:48;;;;;;;;;;;;;;;21.19;27.39;98320.81;4959513;28;1981;-77
2022/11/03 00:36:14;;;;;;;;;;;;;;;21.23;27.50;98329.22;4959736;28;792;-77
2022/11/03 00:38:39;;;;;;;;;;;;;;;21.13;27.67;98325.34;4959623;28;760;-77
2022/11/03 00:41:05;;;;;;;;;;;;;;;20.99;28.11;98331.31;4986572;28;1452;-78
2022/11/03 00:43:31;;;;;;;;;;;;;;;21.03;27.73;98323.53;4940283;28;1187;-77
2022/11/03 00:45:57;;;;;;;;;;;;;;;21.23;27.77;98329.22;4924578;29;888;-78
2022/11/03 00:48:28;;;;;;;;;;;;;;;21.16;27.75;98335.81;4924676;29;1175;-77
2022/11/03 00:51:10;;;;;;;;;;;;;;;21.15;27.51;98331.41;4925037;29;1402;-77
2022/11/03 00:53:48;;;;;;;;;;;;;;;20.98;27.72;98341.00;4940342;29;1906;-78
2022/11/03 00:56:21;;;;;;;;;;;;;;;20.89;28.09;98350.06;4940753;28;977;-77
2022/11/03 00:58:46;;;;;;;;;;;;;;;20.88;27.84;98342.00;4975694;28;964;-77
2022/11/03 01:01:21;;;;;;;;;;;;;;;21.09;28.04;98338.78;4974351;28;1491;-78
2022/11/03 01:06:51;;;;;;;;;;;;;;;21.28;27.60;98338.00;4975877;28;1225;-77
2022/11/03 01:09:29;;;;;;;;;;;;;;;21.20;27.52;98338.59;4975682;28;795;-77
2022/11/03 01:11:59;;;;;;;;;;;;;;;21.09;27.83;98338.78;4975283;28;1598;-77
2022/11/03 01:14:43;;;;;;;;;;;;;;;21.30;27.23;98343.28;4994931;28;1906;-78
2022/11/03 01:17:19;;;;;;;;;;;;;;;21.42;27.12;98350.31;4978726;28;1118;-77
2022/11/03 01:19:44;;;;;;;;;;;;;;;21.41;27.17;98349.50;4979144;28;1212;-77
2022/11/03 01:22:10;;;;;;;;;;;;;;;21.16;27.65;98354.81;4997822;28;1618;-76
2022/11/03 01:24:35;;;;;;;;;;;;;;;20.96;27.78;98357.63;4998276;28;1210;-77
2022/11/03 01:27:01;;;;;;;;;;;;;;;20.93;27.75;98355.66;5014802;28;1218;-77
2022/11/03 01:29:26;;;;;;;;;;;;;;;21.04;27.48;98350.63;5014428;28;711;-77
2022/11/03 01:31:52;;;;;;;;;;;;;;;21.02;28.07;98355.88;4980898;28;1595;-77
2022/11/03 01:34:18;;;;;;;;;;;;;;;21.18;27.71;98350.31;5014311;28;1973;-78
2022/11/03 01:36:43;;;;;;;;;;;;;;;21.21;27.52;98349.47;4998391;28;775;-77
2022/11/03 01:39:12;;;;;;;;;;;;;;;21.02;27.79;98364.38;4997918;28;823;-77
2022/11/03 01:41:37;;;;;;;;;;;;;;;21.01;28.04;98363.56;4978459;28;1561;-78
2022/11/03 01:44:05;;;;;;;;;;;;;;;20.92;27.93;98359.72;4947188;28;1250;-77
2022/11/03 01:46:30;;;;;;;;;;;;;;;21.18;27.44;98361.63;4979402;28;1143;-77
2022/11/03 01:49:04;;;;;;;;;;;;;;;21.44;27.14;98356.31;4979101;28;708;-77
2022/11/03 01:51:29;;;;;;;;;;;;;;;21.35;27.18;98353.25;4958884;29;1585;-78
2022/11/03 01:53:55;;;;;;;;;;;;;;;21.00;27.94;98361.19;4942662;28;1985;-78
2022/11/03 01:56:20;;;;;;;;;;;;;;;21.12;27.57;98359.75;4940349;29;1144;-77
2022/11/03 01:58:47;;;;;;;;;;;;;;;21.03;27.83;98372.41;4905046;29;1355;-78
2022/11/03 02:01:13;;;;;;;;;;;;;;;21.03;28.04;98371.63;4905547;29;781;-78
2022/11/03 02:03:39;;;;;;;;;;;;;;;21.24;27.63;98365.59;4925821;29;1577;-77
2022/11/03 02:06:05;;;;;;;;;;;;;;;21.30;27.41;98369.53;4923783;29;1550;-78
2022/11/03 02:08:33;;;;;;;;;;;;;;;21.06;27.66;98370.78;4909121;29;1115;-77
2022/11/03 02:10:58;;;;;;;;;;;;;;;20.94;28.11;98363.72;4924612;29;990;-77
2022/11/03 02:13:25;;;;;;;;;;;;;;;20.93;27.88;98366.97;4924198;29;926;-77
2022/11/03 02:15:51;;;;;;;;;;;;;;;20.76;28.24;98368.88;4891989;29;2224;-76
2022/11/03 02:18:17;;;;;;;;;;;;;;;21.22;27.58;98373.69;4927851;29;1307;-77
2022/11/03 02:20:43;;;;;;;;;;;;;;;21.40;27.57;98375.41;4959255;29;815;-78
2022/11/03 02:23:16;;;;;;;;;;;;;;;21.47;27.36;98361.13;4957339;28;1125;-78
2022/11/03 02:25:47;;;;;;;;;;;;;;;21.01;27.80;98377.72;4969820;28;1486;-78
2022/11/03 02:28:22;;;;;;;;;;;;;;;20.98;28.21;98387.06;4978862;28;1291;-77
2022/11/03 02:30:52;;;;;;;;;;;;;;;21.08;27.92;98386.06;4962292;28;1243;-77
2022/11/03 02:33:18;;;;;;;;;;;;;;;21.56;27.53;98381.16;4968196;28;961;-77
2022/11/03 02:35:49;;;;;;;;;;;;;;;21.44;27.34;98373.31;4998018;28;1894;-77
2022/11/03 02:38:15;;;;;;;;;;;;;;;21.17;28.05;98387.56;5001561;28;1722;-77
2022/11/03 02:40:42;;;;;;;;;;;;;;;21.04;27.99;98391.03;5001189;28;1182;-78
2022/11/03 02:43:07;;;;;;;;;;;;;;;20.95;28.42;98392.81;5001108;28;739;-77
2022/11/03 02:45:33;;;;;;;;;;;;;;;20.90;28.30;98384.81;5017343;28;937;-77
2022/11/03 02:47:58;;;;;;;;;;;;;;;21.17;28.48;98393.22;4999583;28;1485;-77
2022/11/03 02:50:27;;;;;;;;;;;;;;;21.31;28.13;98402.25;5000844;28;835;-77
2022/11/03 02:52:53;;;;;;;;;;;;;;;21.41;27.98;98391.19;4967738;28;1168;-78
2022/11/03 02:55:37;;;;;;;;;;;;;;;21.03;28.39;98399.91;4998485;28;1971;-77
2022/11/03 02:58:14;;;;;;;;;;;;;;;20.97;28.46;98390.34;5016950;28;800;-77
2022/11/03 03:01:13;;;;;;;;;;;;;;;21.08;28.29;98390.94;5016028;28;1015;-77
2022/11/03 03:03:43;;;;;;;;;;;;;;;21.53;28.05;98382.03;4958305;29;1010;-77
2022/11/03 03:06:09;;;;;;;;;;;;;;;21.42;28.30;98387.09;4926011;29;1554;-76
2022/11/03 03:08:35;;;;;;;;;;;;;;;21.26;28.79;98394.25;4941305;29;1443;-77
2022/11/03 03:11:00;;;;;;;;;;;;;;;20.92;29.05;98399.31;4958016;28;735;-78
2022/11/03 03:13:25;;;;;;;;;;;;;;;21.14;29.03;98400.53;4942095;29;1190;-78
2022/11/03 03:15:51;;;;;;;;;;;;;;;21.37;29.09;98385.56;4957863;29;1902;-77
2022/11/03 03:18:24;;;;;;;;;;;;;;;21.55;28.55;98388.03;4957442;29;1502;-77
2022/11/03 03:20:49;;;;;;;;;;;;;;;21.64;28.70;98390.28;4942315;29;1001;-77
2022/11/03 03:23:21;;;;;;;;;;;;;;;21.14;29.64;98406.22;4942137;29;1221;-77
2022/11/03 03:25:51;;;;;;;;;;;;;;;21.23;29.12;98403.59;4942234;29;1207;-77
2022/11/03 03:28:18;;;;;;;;;;;;;;;21.24;29.24;98405.22;4939748;29;1471;-77
2022/11/03 03:30:43;;;;;;;;;;;;;;;21.52;29.49;98403.09;4941745;29;798;-77
2022/11/03 03:33:09;;;;;;;;;;;;;;;21.65;28.99;98408.88;4926307;29;1116;-78
2022/11/03 03:35:35;;;;;;;;;;;;;;;21.37;29.58;98410.25;4942030;29;1968;-77
2022/11/03 03:38:02;;;;;;;;;;;;;;;21.19;29.64;98407.72;4941131;29;1554;-77
2022/11/03 03:40:29;;;;;;;;;;;;;;;21.08;29.96;98410.75;4932721;29;1504;-77
2022/11/03 03:42:54;;;;;;;;;;;;;;;21.18;29.47;98406.91;4941889;29;794;-77
2022/11/03 03:45:20;;;;;;;;;;;;;;;21.36;29.34;98405.84;4941927;29;932;-77
2022/11/03 03:47:45;;;;;;;;;;;;;;;21.30;29.70;98397.84;4957948;29;1209;-77
2022/11/03 03:50:11;;;;;;;;;;;;;;;20.98;30.09;98392.72;4954318;28;1601;-77
2022/11/03 03:52:36;;;;;;;;;;;;;;;21.29;30.14;98393.34;4958787;28;1415;-77
2022/11/03 03:55:02;;;;;;;;;;;;;;;21.37;29.83;98391.22;4977012;28;1977;-77
2022/11/03 03:57:28;;;;;;;;;;;;;;;21.50;29.56;98394.22;4976703;28;1172;-77
2022/11/03 03:59:54;;;;;;;;;;;;;;;21.32;29.70;98389.69;4975133;28;1474;-78
2022/11/03 04:02:19;;;;;;;;;;;;;;;21.27;30.01;98395.84;4960582;28;1277;-77
2022/11/03 04:04:45;;;;;;;;;;;;;;;21.39;29.51;98399.28;4975887;28;768;-77
2022/11/03 04:09:54;;;;;;;;;;;;;;;21.29;30.39;98407.50;4976512;28;830;-77
2022/11/03 04:23:16;;;;;;;;;;;;;;;21.07;30.46;98406.31;4995994;28;836;-77
2022/11/03 04:25:46;;;;;;;;;;;;;;;21.17;30.54;98408.16;4993727;28;1632;-77
2022/11/03 04:28:12;;;;;;;;;;;;;;;21.22;30.18;98404.81;5000723;28;951;-77
2022/11/03 04:30:38;;;;;;;;;;;;;;;21.24;30.46;98410.88;4995560;28;953;-77
2022/11/03 04:33:04;;;;;;;;;;;;;;;21.33;30.40;98402.63;4979328;28;797;-77
2022/11/03 04:35:29;;;;;;;;;;;;;;;21.39;30.21;98404.94;4978031;28;1911;-77
2022/11/03 04:37:57;;;;;;;;;;;;;;;21.17;30.65;98416.63;4959944;28;723;-77
2022/11/03 04:40:22;;;;;;;;;;;;;;;21.25;30.54;98417.31;4941145;29;837;-77
2022/11/03 04:42:48;;;;;;;;;;;;;;;21.13;30.55;98415.09;4925247;29;1212;-77
2022/11/03 04:45:29;;;;;;;;;;;;;;;21.22;30.44;98418.97;4925099;29;1145;-77
2022/11/03 04:47:54;;;;;;;;;;;;;;;21.25;30.44;98431.47;4929380;28;1700;-77
2022/11/03 04:50:21;;;;;;;;;;;;;;;21.44;30.88;98424.25;4959896;28;1255;-77
2022/11/03 04:52:47;;;;;;;;;;;;;;;21.39;30.72;98428.38;4959735;28;748;-77
2022/11/03 04:55:16;;;;;;;;;;;;;;;21.43;30.76;98436.81;4975805;28;1950;-77
2022/11/03 04:57:41;;;;;;;;;;;;;;;21.42;30.46;98438.06;4959769;28;732;-77
2022/11/03 05:00:11;;;;;;;;;;;;;;;21.33;30.54;98433.75;4959874;28;1029;-77
2022/11/03 05:02:37;;;;;;;;;;;;;;;21.35;30.16;98443.84;4924651;29;1657;-77
2022/11/03 05:05:07;;;;;;;;;;;;;;;21.25;30.40;98440.75;4956689;29;850;-77
2022/11/03 05:07:35;;;;;;;;;;;;;;;21.21;30.88;98442.84;4937333;29;1489;-78
2022/11/03 05:10:01;;;;;;;;;;;;;;;21.19;30.78;98453.81;4921434;29;934;-77
2022/11/03 05:12:27;;;;;;;;;;;;;;;21.12;30.87;98465.25;4964220;28;978;-78
2022/11/03 05:14:53;;;;;;;;;;;;;;;21.32;30.44;98466.13;4995915;28;1915;-78
2022/11/03 05:17:22;;;;;;;;;;;;;;;21.30;30.94;98468.59;4999380;28;1418;-77
2022/11/03 05:19:48;;;;;;;;;;;;;;;21.43;30.78;98470.78;4983060;28;1334;-77
2022/11/03 05:25:51;;;;;;;;;;;;;;;21.28;30.94;98473.84;4998985;28;657;-77
2022/11/03 05:28:27;;;;;;;;;;;;;;;21.05;31.18;98479.53;4982807;28;937;-77
2022/11/03 05:30:53;;;;;;;;;;;;;;;20.97;31.43;98487.31;4982691;28;868;-77
2022/11/03 05:33:25;;;;;;;;;;;;;;;21.41;31.08;98481.75;4982624;28;1174;-77
2022/11/03 05:35:50;;;;;;;;;;;;;;;21.38;31.00;98493.94;4982946;28;1902;-77
2022/11/03 05:38:16;;;;;;;;;;;;;;;21.55;30.80;98504.13;4995297;28;783;-78
2022/11/03 05:40:41;;;;;;;;;;;;;;;21.24;31.31;98498.59;5019533;28;692;-77
2022/11/03 05:43:07;;;;;;;;;;;;;;;21.24;30.81;98512.75;5020593;28;802;-77
2022/11/03 05:45:33;;;;;;;;;;;;;;;21.15;31.05;98504.00;5019106;28;738;-77
2022/11/03 05:47:58;;;;;;;;;;;;;;;21.21;31.03;98507.94;5019391;28;794;-78
2022/11/03 05:50:24;;;;;;;;;;;;;;;21.13;31.30;98506.44;4986584;28;1129;-77
2022/11/03 05:52:53;;;;;;;;;;;;;;;21.03;31.46;98507.44;5018825;28;711;-77
2022/11/03 05:55:26;;;;;;;;;;;;;;;21.37;31.42;98510.13;5018810;28;1981;-77
2022/11/03 05:57:53;;;;;;;;;;;;;;;21.39;31.00;98512.50;5035368;28;1126;-77
2022/11/03 06:00:38;;;;;;;;;;;;;;;21.41;31.12;98510.06;5018833;28;838;-77
2022/11/03 06:03:04;;;;;;;;;;;;;;;21.30;31.04;98527.25;4978949;28;1040;-77
2022/11/03 06:05:30;;;;;;;;;;;;;;;21.23;30.79;98528.09;4978369;28;907;-77
2022/11/03 06:07:56;;;;;;;;;;;;;;;21.32;30.59;98527.59;4962307;28;892;-77
2022/11/03 06:10:30;;;;;;;;;;;;;;;21.40;30.68;98528.25;4962242;28;830;-77
2022/11/03 06:12:58;;;;;;;;;;;;;;;21.55;30.68;98538.94;4978037;28;748;-77
2022/11/03 06:15:36;;;;;;;;;;;;;;;21.50;30.84;98530.09;4977516;28;1899;-78
2022/11/03 06:18:09;;;;;;;;;;;;;;;21.24;31.02;98535.41;4977567;28;765;-78
2022/11/03 06:20:35;;;;;;;;;;;;;;;21.27;30.82;98543.00;4961785;28;932;-77
2022/11/03 06:23:00;;;;;;;;;;;;;;;21.22;30.85;98549.16;4961556;28;1143;-77
2022/11/03 06:25:27;;;;;;;;;;;;;;;21.21;30.79;98541.91;4961591;28;1194;-77
2022/11/03 06:27:53;;;;;;;;;;;;;;;21.14;30.89;98544.88;4921968;29;889;-78
2022/11/03 06:30:20;;;;;;;;;;;;;;;21.10;31.09;98549.78;4907846;29;1139;-78
2022/11/03 06:32:46;;;;;;;;;;;;;;;21.12;31.22;98549.34;4907923;29;1274;-78
2022/11/03 06:35:11;;;;;;;;;;;;;;;21.55;30.50;98555.94;4923632;29;1911;-77
2022/11/03 06:37:36;;;;;;;;;;;;;;;21.42;31.01;98548.47;4923415;29;831;-77
2022/11/03 06:40:08;;;;;;;;;;;;;;;21.46;30.72;98554.88;4940530;28;879;-78
2022/11/03 06:42:33;;;;;;;;;;;;;;;21.38;31.00;98556.22;4977321;28;785;-78
2022/11/03 06:44:59;;;;;;;;;;;;;;;21.27;31.00;98573.34;4961215;28;799;-77
2022/11/03 06:47:26;;;;;;;;;;;;;;;21.29;31.02;98565.22;4977338;28;877;-77
2022/11/03 06:49:53;;;;;;;;;;;;;;;21.03;31.27;98558.34;4977235;28;744;-78
2022/11/03 06:52:24;;;;;;;;;;;;;;;21.45;31.04;98562.56;4977087;28;790;-78
2022/11/03 06:54:59;;;;;;;;;;;;;;;21.41;30.98;98561.03;4976928;28;1914;-78
2022/11/03 06:57:24;;;;;;;;;;;;;;;21.15;31.14;98560.59;4977050;28;831;-78
2022/11/03 06:59:51;;;;;;;;;;;;;;;21.30;31.27;98562.00;4998362;28;1257;-78
2022/11/03 07:02:35;;;;;;;;;;;;;;;21.25;31.03;98559.63;5017182;28;775;-78
2022/11/03 07:05:00;;;;;;;;;;;;;;;21.36;30.64;98564.34;5018501;28;712;-79
2022/11/03 07:07:26;;;;;;;;;;;;;;;21.23;30.92;98562.06;5016935;28;818;-79
2022/11/03 07:09:51;;;;;;;;;;;;;;;21.08;31.09;98560.69;5017197;28;1257;-79
2022/11/03 07:12:17;;;;;;;;;;;;;;;21.46;31.22;98560.53;5017025;28;782;-79
2022/11/03 07:14:42;;;;;;;;;;;;;;;21.51;30.90;98552.34;5018281;28;1894;-79
2022/11/03 07:17:15;;;;;;;;;;;;;;;21.35;31.01;98568.38;5017540;28;1153;-79
2022/11/03 07:19:41;;;;;;;;;;;;;;;20.95;31.36;98571.81;5017591;28;747;-79
2022/11/03 07:22:14;;;;;;;;;;;;;;;21.29;31.00;98565.22;5017883;28;908;-78
2022/11/03 07:24:40;;;;;;;;;;;;;;;21.09;30.98;98562.31;5017472;28;870;-79
2022/11/03 07:27:11;;;;;;;;;;;;;;;21.24;30.67;98566.53;4997156;28;1250;-78
2022/11/03 07:29:36;;;;;;;;;;;;;;;21.36;31.12;98572.84;4996562;28;914;-78
2022/11/03 07:32:04;;;;;;;;;;;;;;;21.54;30.77;98574.13;4996613;28;818;-79
2022/11/03 07:34:31;;;;;;;;;;;;;;;21.24;30.85;98582.69;4980275;28;1983;-79
2022/11/03 07:36:56;;;;;;;;;;;;;;;21.41;30.65;98578.00;4964521;28;1228;-78
2022/11/03 07:39:22;;;;;;;;;;;;;;;21.16;31.26;98576.34;4980134;28;1353;-79
2022/11/03 07:41:47;;;;;;;;;;;;;;;21.17;30.87;98580.78;4980165;28;819;-79
2022/11/03 07:44:14;;;;;;;;;;;;;;;21.16;31.02;98582.00;4980001;28;928;-79
2022/11/03 07:46:40;;;;;;;;;;;;;;;21.05;31.12;98575.72;4996078;28;822;-79
2022/11/03 07:49:08;;;;;;;;;;;;;;;21.05;31.24;98584.22;4963691;28;1226;-79
2022/11/03 07:51:36;;;;;;;;;;;;;;;21.03;31.19;98583.81;4979610;28;836;-79
2022/11/03 07:54:07;;;;;;;;;;;;;;;21.49;31.09;98585.13;4979480;28;1903;-79
2022/11/03 07:56:40;;;;;;;;;;;;;;;21.69;30.44;98588.84;4995573;28;810;-79
2022/11/03 07:59:10;;;;;;;;;;;;;;;21.26;31.20;98583.88;5015282;28;832;-79
2022/11/03 08:01:36;;;;;;;;;;;;;;;21.27;30.77;98584.66;5000134;28;1241;-79
2022/11/03 08:04:21;;;;;;;;;;;;;;;21.16;31.06;98584.84;5000144;28;1222;-79
2022/11/03 08:06:47;;;;;;;;;;;;;;;21.22;30.86;98587.97;5016210;28;838;-79
2022/11/03 08:09:12;;;;;;;;;;;;;;;21.11;30.95;98581.69;5015650;28;877;-79
2022/11/03 08:11:38;;;;;;;;;;;;;;;21.29;30.97;98585.03;5015692;28;801;-79
2022/11/03 08:14:04;;;;;;;;;;;;;;;21.14;30.91;98592.97;5016410;28;1902;-78
2022/11/03 08:16:29;;;;;;;;;;;;;;;21.36;31.19;98589.81;5015803;28;1158;-78
2022/11/03 08:18:54;;;;;;;;;;;;;;;21.51;31.04;98594.03;4998934;28;1025;-77
2022/11/03 08:21:20;;;;;;;;;;;;;;;21.24;31.24;98580.69;5017441;28;747;-77
2022/11/03 08:23:45;;;;;;;;;;;;;;;21.37;31.08;98594.25;5032446;28;920;-77
2022/11/03 08:26:11;;;;;;;;;;;;;;;21.17;31.17;98592.09;5016366;28;794;-78
2022/11/03 08:28:37;;;;;;;;;;;;;;;21.31;30.67;98591.91;4995422;28;918;-78
2022/11/03 08:31:04;;;;;;;;;;;;;;;21.23;31.15;98584.72;4986165;28;1230;-78
2022/11/03 08:33:32;;;;;;;;;;;;;;;21.27;31.05;98591.13;4975826;28;903;-77
2022/11/03 08:35:58;;;;;;;;;;;;;;;21.59;30.85;98592.66;4975545;28;1922;-78
2022/11/03 08:38:23;;;;;;;;;;;;;;;21.77;30.63;98590.31;4975373;28;764;-77
2022/11/03 08:40:49;;;;;;;;;;;;;;;21.45;30.70;98596.53;4975335;28;779;-77
2022/11/03 08:43:14;;;;;;;;;;;;;;;21.23;31.43;98590.38;4975444;28;872;-77
2022/11/03 08:45:40;;;;;;;;;;;;;;;21.25;31.28;98582.28;4991286;28;728;-78
2022/11/03 08:48:05;;;;;;;;;;;;;;;21.17;31.14;98586.44;4975403;28;859;-77
2022/11/03 08:50:31;;;;;;;;;;;;;;;21.07;31.29;98585.38;4990684;28;866;-77
2022/11/03 08:52:56;;;;;;;;;;;;;;;21.15;31.07;98583.25;4975002;28;760;-78
2022/11/03 08:55:21;;;;;;;;;;;;;;;21.26;31.14;98583.88;4990857;28;1988;-76
2022/11/03 08:57:47;;;;;;;;;;;;;;;21.67;30.75;98577.16;4958950;28;1111;-77
2022/11/03 09:00:13;;;;;;;;;;;;;;;21.29;31.13;98583.00;4978493;28;1009;-78
2022/11/03 09:02:38;;;;;;;;;;;;;;;21.14;31.22;98581.66;4995989;28;1088;-77
2022/11/03 09:05:04;;;;;;;;;;;;;;;21.32;31.15;98581.38;5011803;28;720;-77
2022/11/03 09:07:30;;;;;;;;;;;;;;;21.14;31.09;98569.50;4994690;28;1597;-77
2022/11/03 09:09:55;;;;;;;;;;;;;;;21.10;31.27;98580.91;4965628;28;1219;-77
2022/11/03 09:12:21;;;;;;;;;;;;;;;21.05;30.99;98584.22;4984972;28;1334;-78
2022/11/03 09:14:46;;;;;;;;;;;;;;;21.04;31.28;98588.28;4991839;28;1910;-78
2022/11/03 09:17:12;;;;;;;;;;;;;;;21.28;32.03;98575.75;4977058;28;1050;-77
2022/11/03 09:19:37;;;;;;;;;;;;;;;21.52;31.24;98575.78;4972634;28;808;-77
2022/11/03 09:22:03;;;;;;;;;;;;;;;21.32;31.40;98570.06;4972343;28;735;-78
2022/11/03 09:24:29;;;;;;;;;;;;;;;21.35;31.22;98565.56;4956251;29;911;-78
2022/11/03 09:26:54;;;;;;;;;;;;;;;21.17;31.26;98571.50;4940246;29;1583;-78
2022/11/03 09:29:20;;;;;;;;;;;;;;;21.23;31.33;98570.56;4956304;29;947;-77
2022/11/03 09:31:45;;;;;;;;;;;;;;;21.18;31.40;98567.41;4956545;29;1012;-77
2022/11/03 09:34:11;;;;;;;;;;;;;;;21.28;30.77;98564.41;4956532;28;1995;-79
2022/11/03 09:36:37;;;;;;;;;;;;;;;21.14;31.33;98564.66;4972270;28;823;-78
2022/11/03 09:39:02;;;;;;;;;;;;;;;21.23;31.08;98556.41;4956393;28;1235;-78
2022/11/03 09:41:28;;;;;;;;;;;;;;;21.32;30.94;98559.53;4951914;29;812;-78
2022/11/03 09:43:55;;;;;;;;;;;;;;;21.41;30.78;98558.19;4957288;29;779;-78
2022/11/03 09:46:20;;;;;;;;;;;;;;;21.32;30.87;98559.53;4968385;28;1099;-77
2022/11/03 09:48:46;;;;;;;;;;;;;;;21.29;31.24;98551.88;4945841;29;1481;-77
2022/11/03 09:51:13;;;;;;;;;;;;;;;21.59;31.19;98553.81;4964690;28;1298;-78
2022/11/03 09:53:38;;;;;;;;;;;;;;;21.52;31.65;98542.63;4948389;29;1309;-78
2022/11/03 09:56:04;;;;;;;;;;;;;;;21.42;31.29;98537.94;4956276;29;1993;-79
2022/11/03 09:58:30;;;;;;;;;;;;;;;21.54;31.07;98542.19;4955984;29;943;-77
2022/11/03 10:00:56;;;;;;;;;;;;;;;21.40;31.56;98539.59;4972806;28;1391;-77
2022/11/03 10:03:22;;;;;;;;;;;;;;;21.50;31.14;98535.78;4959859;29;808;-78
2022/11/03 10:05:48;;;;;;;;;;;;;;;21.20;31.59;98526.16;4975539;28;747;-77
2022/11/03 10:08:34;;;;;;;;;;;;;;;21.27;31.22;98526.03;4975731;28;902;-78
2022/11/03 10:11:00;;;;;;;;;;;;;;;21.26;31.11;98527.25;4998285;28;815;-78
2022/11/03 10:13:27;;;;;;;;;;;;;;;21.13;31.28;98529.09;4981877;28;940;-78
2022/11/03 10:15:53;;;;;;;;;;;;;;;21.24;31.42;98528.91;4976695;28;1952;-78
2022/11/03 10:18:19;;;;;;;;;;;;;;;21.20;31.39;98529.00;4943857;29;1182;-78
2022/11/03 10:20:44;;;;;;;;;;;;;;;21.07;31.26;98522.31;4974072;28;1215;-78
2022/11/03 10:23:09;;;;;;;;;;;;;;;21.52;31.35;98519.16;4992182;28;1357;-77
2022/11/03 10:25:35;;;;;;;;;;;;;;;21.53;31.56;98523.59;4951850;28;1274;-77
2022/11/03 10:28:17;;;;;;;;;;;;;;;21.31;31.85;98512.66;4988735;28;1290;-77
2022/11/03 10:30:49;;;;;;;;;;;;;;;21.43;31.35;98516.09;4970592;28;1204;-77
2022/11/03 10:33:30;;;;;;;;;;;;;;;21.22;31.50;98514.41;4950706;28;1303;-77
2022/11/03 10:35:56;;;;;;;;;;;;;;;21.13;31.37;98512.09;4953712;28;1902;-77
2022/11/03 10:38:29;;;;;;;;;;;;;;;21.32;31.26;98502.94;4943658;28;1350;-77
2022/11/03 10:40:55;;;;;;;;;;;;;;;21.27;31.31;98500.56;4947094;29;1319;-77
2022/11/03 10:43:21;;;;;;;;;;;;;;;21.19;31.34;98507.59;4916281;29;1392;-77
2022/11/03 10:45:48;;;;;;;;;;;;;;;21.20;31.58;98506.34;4930612;29;1247;-77
2022/11/03 10:48:14;;;;;;;;;;;;;;;21.20;31.51;98506.34;4902269;29;1271;-78
2022/11/03 10:50:40;;;;;;;;;;;;;;;21.01;31.54;98505.03;4931785;29;1298;-77
2022/11/03 10:53:08;;;;;;;;;;;;;;;21.05;31.54;98502.16;4916223;29;1262;-78
2022/11/03 10:55:33;;;;;;;;;;;;;;;21.20;31.69;98500.69;4930811;29;1915;-78
2022/11/03 10:57:59;;;;;;;;;;;;;;;21.84;30.78;98496.69;4948242;29;1294;-77
2022/11/03 11:00:25;;;;;;;;;;;;;;;21.71;30.92;98487.25;4933205;29;1260;-77
2022/11/03 11:02:55;;;;;;;;;;;;;;;21.38;31.41;98479.78;4942785;29;792;-77
2022/11/03 11:05:21;;;;;;;;;;;;;;;21.26;31.43;98476.31;4942874;29;1109;-77
2022/11/03 11:07:47;;;;;;;;;;;;;;;21.13;31.56;98472.50;4942510;29;765;-77
2022/11/03 11:10:17;;;;;;;;;;;;;;;21.46;31.11;98478.44;4942673;29;968;-77
2022/11/03 11:13:01;;;;;;;;;;;;;;;21.23;31.39;98476.38;4956018;28;840;-77
2022/11/03 11:15:35;;;;;;;;;;;;;;;21.27;31.17;98471.47;4960641;28;1918;-77
2022/11/03 11:18:01;;;;;;;;;;;;;;;21.31;31.22;98473.03;4979393;28;985;-77
2022/11/03 11:20:37;;;;;;;;;;;;;;;21.24;31.22;98478.78;4979703;28;882;-77
2022/11/03 11:23:21;;;;;;;;;;;;;;;21.24;31.42;98473.13;4978295;28;994;-77
2022/11/03 11:26:05;;;;;;;;;;;;;;;21.12;31.38;98462.41;4978675;28;1102;-77
2022/11/03 11:28:31;;;;;;;;;;;;;;;21.09;31.37;98471.78;4979287;28;887;-77
2022/11/03 11:31:32;;;;;;;;;;;;;;;21.65;31.34;98452.16;4978326;28;759;-77
2022/11/03 11:34:11;;;;;;;;;;;;;;;21.61;31.38;98457.13;4938817;29;800;-76
2022/11/03 11:36:40;;;;;;;;;;;;;;;21.16;32.09;98460.31;4938483;29;933;-77
2022/11/03 11:39:08;;;;;;;;;;;;;;;21.23;31.59;98453.72;4938528;29;848;-76
2022/11/03 11:42:00;;;;;;;;;;;;;;;21.10;31.80;98458.44;4938582;29;1081;-76
2022/11/03 11:44:45;;;;;;;;;;;;;;;21.11;31.71;98452.31;4935619;29;1002;-76
2022/11/03 11:47:24;;;;;;;;;;;;;;;21.09;31.55;98454.81;4937986;29;1033;-77
2022/11/03 11:50:12;;;;;;;;;;;;;;;21.11;31.55;98451.53;4922675;29;966;-77
2022/11/03 11:52:41;;;;;;;;;;;;;;;21.27;31.21;98443.94;4881679;29;1060;-77
2022/11/03 11:55:15;;;;;;;;;;;;;;;21.19;31.27;98436.84;4882006;29;1976;-77
2022/11/03 11:57:40;;;;;;;;;;;;;;;21.36;30.86;98439.81;4881552;29;870;-77
2022/11/03 12:00:16;;;;;;;;;;;;;;;21.23;31.05;98439.59;4850692;29;1076;-76
2022/11/03 12:02:44;;;;;;;;;;;;;;;21.03;31.60;98439.53;4851084;29;937;-77
2022/11/03 12:05:16;;;;;;;;;;;;;;;20.98;31.74;98434.34;4850666;29;856;-76
2022/11/03 12:07:41;;;;;;;;;;;;;;;21.60;31.03;98432.84;4870096;29;925;-77
2022/11/03 12:10:27;;;;;;;;;;;;;;;21.38;31.87;98431.66;4866075;29;931;-76
2022/11/03 12:12:53;;;;;;;;;;;;;;;21.35;31.77;98438.19;4865806;29;976;-76
2022/11/03 12:15:37;;;;;;;;;;;;;;;21.30;31.90;98431.81;4850592;29;1911;-76
2022/11/03 12:18:22;;;;;;;;;;;;;;;21.23;31.49;98431.88;4881311;29;824;-77
2022/11/03 12:20:48;;;;;;;;;;;;;;;21.38;31.50;98426.00;4881202;29;832;-77
2022/11/03 12:23:37;;;;;;;;;;;;;;;21.20;31.67;98427.13;4881705;29;873;-77
2022/11/03 12:26:03;;;;;;;;;;;;;;;21.19;31.35;98425.53;4880810;29;863;-77
2022/11/03 12:28:34;;;;;;;;;;;;;;;21.37;30.92;98427.25;4867349;29;987;-77
2022/11/03 12:31:00;;;;;;;;;;;;;;;21.50;31.18;98422.53;4956846;29;839;-77
2022/11/03 12:33:26;;;;;;;;;;;;;;;21.51;31.36;98421.31;4918824;29;996;-76
2022/11/03 12:35:52;;;;;;;;;;;;;;;21.31;31.34;98422.06;4902873;29;1985;-76
2022/11/03 12:38:17;;;;;;;;;;;;;;;21.44;31.04;98424.25;4932079;29;882;-76
2022/11/03 12:40:43;;;;;;;;;;;;;;;21.39;31.07;98433.25;4956751;29;1001;-77
2022/11/03 12:43:08;;;;;;;;;;;;;;;21.29;31.24;98435.81;4940963;29;843;-77
2022/11/03 12:45:34;;;;;;;;;;;;;;;21.11;31.51;98420.41;4957018;29;779;-77
2022/11/03 12:47:59;;;;;;;;;;;;;;;21.11;31.68;98426.88;4956891;29;898;-77
2022/11/03 12:50:25;;;;;;;;;;;;;;;20.94;31.78;98425.16;4956523;28;905;-77
2022/11/03 12:52:50;;;;;;;;;;;;;;;21.24;31.40;98424.19;4956801;29;767;-76
2022/11/03 12:55:15;;;;;;;;;;;;;;;21.19;31.25;98430.34;4940488;29;1922;-77
2022/11/03 12:57:44;;;;;;;;;;;;;;;21.06;31.58;98427.34;4940777;28;724;-77
2022/11/03 13:00:11;;;;;;;;;;;;;;;20.92;31.70;98424.78;4956714;29;839;-76
2022/11/03 13:02:36;;;;;;;;;;;;;;;21.53;31.27;98416.00;4940346;29;819;-77
2022/11/03 13:05:02;;;;;;;;;;;;;;;21.70;31.04;98417.66;4967123;28;933;-77
2022/11/03 13:07:27;;;;;;;;;;;;;;;21.54;30.99;98411.94;4956402;28;973;-76
2022/11/03 13:09:53;;;;;;;;;;;;;;;21.50;31.08;98416.84;4956485;29;1128;-77
2022/11/03 13:12:30;;;;;;;;;;;;;;;21.41;31.04;98419.47;4956390;28;1144;-77
2022/11/03 13:14:57;;;;;;;;;;;;;;;21.47;31.03;98418.53;4956231;28;1918;-77
2022/11/03 13:17:22;;;;;;;;;;;;;;;21.30;31.01;98420.47;4972412;28;1374;-77
2022/11/03 13:19:48;;;;;;;;;;;;;;;21.27;31.24;98424.13;4956541;29;753;-76
2022/11/03 13:22:13;;;;;;;;;;;;;;;21.45;30.81;98414.53;4956465;28;1234;-76
2022/11/03 13:24:38;;;;;;;;;;;;;;;21.37;30.87;98418.75;4956391;28;967;-77
2022/11/03 13:27:04;;;;;;;;;;;;;;;21.24;31.17;98410.88;4956492;29;978;-76
2022/11/03 13:29:29;;;;;;;;;;;;;;;21.25;31.49;98415.28;4956383;29;800;-76